createdAt,value
2022-07-30T00:00:57.100Z,26.25
2022-07-30T00:02:59.013Z,26.23
2022-07-30T00:05:01.261Z,26.21
2022-07-30T00:07:04.549Z,26.20
2022-07-30T00:09:07.318Z,26.17
2022-07-30T00:11:09.533Z,26.16
2022-07-30T00:13:14.257Z,26.13
2022-07-30T00:15:16.709Z,26.09
2022-07-30T00:17:18.471Z,26.09
2022-07-30T00:19:21.291Z,26.07
2022-07-30T00:21:35.598Z,26.04
2022-07-30T00:23:41.306Z,25.97
2022-07-30T00:26:03.040Z,25.97
2022-07-30T00:28:05.043Z,25.95
2022-07-30T00:30:07.375Z,25.90
2022-07-30T00:32:09.236Z,25.87
2022-07-30T00:34:13.028Z,25.81
2022-07-30T00:36:14.908Z,25.80
2022-07-30T00:38:16.718Z,25.77
2022-07-30T00:40:18.928Z,25.78
2022-07-30T00:42:25.812Z,25.78
2022-07-30T00:44:28.512Z,25.77
2022-07-30T00:46:30.514Z,25.75
2022-07-30T00:48:32.356Z,25.74
2022-07-30T00:50:34.421Z,25.71
2022-07-30T00:52:41.295Z,25.70
2022-07-30T00:54:43.097Z,25.67
2022-07-30T00:56:44.940Z,25.63
2022-07-30T00:58:46.705Z,25.62
2022-07-30T01:00:48.662Z,25.60
2022-07-30T01:02:50.637Z,25.59
2022-07-30T01:04:52.730Z,25.58
2022-07-30T01:06:54.556Z,25.57
2022-07-30T01:08:56.568Z,25.56
2022-07-30T01:10:58.548Z,25.55
2022-07-30T01:13:02.048Z,25.51
2022-07-30T01:15:06.782Z,25.49
2022-07-30T01:17:08.954Z,25.47
2022-07-30T01:19:48.298Z,25.37
2022-07-30T01:22:00.274Z,25.37
2022-07-30T01:24:21.607Z,25.30
2022-07-30T01:26:23.869Z,25.35
2022-07-30T01:28:42.348Z,25.26
2022-07-30T01:30:45.734Z,25.30
2022-07-30T01:32:49.497Z,25.28
2022-07-30T01:34:53.485Z,25.26
2022-07-30T01:36:58.989Z,25.22
2022-07-30T01:39:02.129Z,25.18
2022-07-30T01:41:05.537Z,25.16
2022-07-30T01:43:09.165Z,25.14
2022-07-30T01:45:13.095Z,25.12
2022-07-30T01:47:17.314Z,25.09
2022-07-30T01:49:22.226Z,25.01
2022-07-30T01:51:24.920Z,25.00
2022-07-30T01:53:31.789Z,24.98
2022-07-30T01:55:37.134Z,24.99
2022-07-30T01:57:40.072Z,25.00
2022-07-30T01:59:46.122Z,24.97
2022-07-30T02:01:48.527Z,24.97
2022-07-30T02:03:51.225Z,24.95
2022-07-30T02:05:59.217Z,24.91
2022-07-30T02:08:40.151Z,24.84
2022-07-30T02:10:48.794Z,24.82
2022-07-30T02:12:56.144Z,24.83
2022-07-30T02:15:10.836Z,24.75
2022-07-30T02:17:19.410Z,24.80
2022-07-30T02:19:23.895Z,24.76
2022-07-30T02:21:39.695Z,24.71
2022-07-30T02:23:55.865Z,24.72
2022-07-30T02:26:00.789Z,24.73
2022-07-30T02:28:09.381Z,24.72
2022-07-30T02:30:12.385Z,24.70
2022-07-30T02:32:15.525Z,24.72
2022-07-30T02:34:22.607Z,24.70
2022-07-30T02:36:25.861Z,24.70
2022-07-30T02:38:29.974Z,24.69
2022-07-30T02:40:32.341Z,24.65
2022-07-30T02:42:35.342Z,24.64
2022-07-30T02:44:38.669Z,24.61
2022-07-30T02:46:41.812Z,24.59
2022-07-30T02:49:24.197Z,24.59
2022-07-30T02:51:28.174Z,24.55
2022-07-30T02:53:32.504Z,24.56
2022-07-30T02:55:36.952Z,24.51
2022-07-30T02:57:43.335Z,24.47
2022-07-30T02:59:49.087Z,24.44
2022-07-30T03:01:52.457Z,24.41
2022-07-30T03:03:55.357Z,24.41
2022-07-30T03:05:59.680Z,24.40
2022-07-30T03:08:02.831Z,24.38
2022-07-30T03:10:06.789Z,24.38
2022-07-30T03:12:10.566Z,24.37
2022-07-30T03:14:12.777Z,24.21
2022-07-30T03:16:17.294Z,24.22
2022-07-30T03:18:20.970Z,24.22
2022-07-30T03:20:27.588Z,24.22
2022-07-30T03:22:33.242Z,24.25
2022-07-30T03:24:38.356Z,24.25
2022-07-30T03:26:41.950Z,24.20
2022-07-30T03:28:44.785Z,24.24
2022-07-30T03:30:46.941Z,24.22
2022-07-30T03:32:50.386Z,24.25
2022-07-30T03:34:54.234Z,24.28
2022-07-30T03:37:03.374Z,24.33
2022-07-30T03:39:08.216Z,24.33
2022-07-30T03:41:11.069Z,24.33
2022-07-30T03:43:32.378Z,24.35
2022-07-30T03:45:44.502Z,24.19
2022-07-30T03:47:47.775Z,24.21
2022-07-30T03:49:49.841Z,24.10
2022-07-30T03:51:53.530Z,24.01
2022-07-30T03:53:56.217Z,23.96
2022-07-30T03:56:16.222Z,23.97
2022-07-30T03:58:39.073Z,23.88
2022-07-30T04:00:42.074Z,23.92
2022-07-30T04:02:45.763Z,23.87
2022-07-30T04:05:15.350Z,23.91
2022-07-30T04:07:17.904Z,23.91
2022-07-30T04:09:19.755Z,23.91
2022-07-30T04:11:40.641Z,23.88
2022-07-30T04:13:46.133Z,23.93
2022-07-30T04:16:39.406Z,23.96
2022-07-30T04:18:33.341Z,23.97
2022-07-30T04:20:41.231Z,23.97
2022-07-30T04:22:43.796Z,24.07
2022-07-30T04:24:46.028Z,24.05
2022-07-30T04:26:49.292Z,24.05
2022-07-30T04:28:51.891Z,24.11
2022-07-30T04:34:48.322Z,24.18
2022-07-30T04:36:52.947Z,24.23
2022-07-30T04:38:54.776Z,24.29
2022-07-30T04:40:56.660Z,24.36
2022-07-30T04:42:59.045Z,24.49
2022-07-30T04:45:01.009Z,24.63
2022-07-30T04:47:23.603Z,24.70
2022-07-30T04:49:46.529Z,24.76
2022-07-30T04:51:49.672Z,24.83
2022-07-30T04:53:54.843Z,24.89
2022-07-30T04:55:59.397Z,24.99
2022-07-30T04:58:04.510Z,24.96
2022-07-30T05:00:10.434Z,25.09
2022-07-30T05:02:16.507Z,25.17
2022-07-30T05:04:20.576Z,25.26
2022-07-30T05:06:24.144Z,25.30
2022-07-30T05:08:28.266Z,25.26
2022-07-30T05:10:33.953Z,25.37
2022-07-30T05:12:40.039Z,25.51
2022-07-30T05:14:46.579Z,25.62
2022-07-30T05:16:51.488Z,25.77
2022-07-30T05:18:53.557Z,25.83
2022-07-30T05:20:55.456Z,25.89
2022-07-30T05:23:01.486Z,26.06
2022-07-30T05:25:04.566Z,26.17
2022-07-30T05:27:20.381Z,26.22
2022-07-30T05:29:22.189Z,26.24
2022-07-30T05:31:31.089Z,26.39
2022-07-30T05:33:41.008Z,26.48
2022-07-30T05:35:46.680Z,26.61
2022-07-30T05:37:48.789Z,26.75
2022-07-30T05:39:57.320Z,26.86
2022-07-30T05:42:22.646Z,26.99
2022-07-30T05:44:27.079Z,27.09
2022-07-30T05:46:31.449Z,27.06
2022-07-30T05:48:35.764Z,27.19
2022-07-30T05:50:37.706Z,27.27
2022-07-30T05:52:39.753Z,27.28
2022-07-30T05:55:01.422Z,27.35
2022-07-30T05:57:22.856Z,27.51
2022-07-30T05:59:24.739Z,27.64
2022-07-30T06:01:55.941Z,27.78
2022-07-30T06:04:04.224Z,27.89
2022-07-30T06:06:28.799Z,27.95
2022-07-30T06:08:30.938Z,28.04
2022-07-30T06:10:33.251Z,28.15
2022-07-30T06:12:35.468Z,28.22
2022-07-30T06:14:37.907Z,28.25
2022-07-30T06:16:41.279Z,28.17
2022-07-30T06:18:43.348Z,28.21
2022-07-30T06:20:54.542Z,28.20
2022-07-30T06:23:05.505Z,28.15
2022-07-30T06:25:21.930Z,28.15
2022-07-30T06:27:24.124Z,27.99
2022-07-30T06:29:25.936Z,28.01
2022-07-30T06:31:27.859Z,27.92
2022-07-30T06:33:30.318Z,28.00
2022-07-30T06:35:32.233Z,27.90
2022-07-30T06:37:58.802Z,27.78
2022-07-30T06:39:58.992Z,27.89
2022-07-30T06:42:39.137Z,27.88
2022-07-30T06:44:59.499Z,28.04
2022-07-30T06:47:07.575Z,28.10
2022-07-30T06:49:11.965Z,28.19
2022-07-30T06:51:14.383Z,28.27
2022-07-30T06:53:16.234Z,28.33
2022-07-30T06:56:00.202Z,28.43
2022-07-30T06:58:08.794Z,28.44
2022-07-30T07:00:28.968Z,28.47
2022-07-30T07:02:31.716Z,28.48
2022-07-30T07:04:54.266Z,28.55
2022-07-30T07:06:56.223Z,28.71
2022-07-30T07:09:06.009Z,28.80
2022-07-30T07:11:15.890Z,28.92
2022-07-30T07:13:21.442Z,29.00
2022-07-30T07:15:32.104Z,29.04
2022-07-30T07:17:40.426Z,29.16
2022-07-30T07:20:03.032Z,29.15
2022-07-30T07:22:11.822Z,29.25
2022-07-30T07:24:14.382Z,29.34
2022-07-30T07:26:45.816Z,29.39
2022-07-30T07:28:48.632Z,29.45
2022-07-30T07:30:50.456Z,29.44
2022-07-30T07:32:52.616Z,29.67
2022-07-30T07:34:54.732Z,29.80
2022-07-30T07:36:56.576Z,29.92
2022-07-30T07:38:58.771Z,30.02
2022-07-30T07:41:01.492Z,30.07
2022-07-30T07:43:05.721Z,30.09
2022-07-30T07:45:09.339Z,30.13
2022-07-30T07:47:19.694Z,30.10
2022-07-30T07:49:36.920Z,30.17
2022-07-30T07:51:47.245Z,30.26
2022-07-30T07:54:11.897Z,30.28
2022-07-30T07:56:15.469Z,30.33
2022-07-30T07:58:25.521Z,30.34
2022-07-30T08:00:31.543Z,30.33
2022-07-30T08:02:33.454Z,30.40
2022-07-30T08:04:41.032Z,30.32
2022-07-30T08:06:42.889Z,30.43
2022-07-30T08:09:04.162Z,30.53
2022-07-30T08:11:41.679Z,30.56
2022-07-30T08:14:03.484Z,30.65
2022-07-30T08:16:28.095Z,30.71
2022-07-30T08:18:58.924Z,30.79
2022-07-30T08:21:08.721Z,30.83
2022-07-30T08:23:10.688Z,30.86
2022-07-30T08:25:21.697Z,30.94
2022-07-30T08:27:24.976Z,31.06
2022-07-30T08:29:29.897Z,31.21
2022-07-30T08:31:31.751Z,31.36
2022-07-30T08:33:33.646Z,31.46
2022-07-30T08:35:36.383Z,31.51
2022-07-30T08:37:50.439Z,31.56
2022-07-30T08:39:54.734Z,31.61
2022-07-30T08:41:57.676Z,31.67
2022-07-30T08:44:01.673Z,31.78
2022-07-30T08:46:08.845Z,31.86
2022-07-30T08:48:23.645Z,32.04
2022-07-30T08:50:26.235Z,32.16
2022-07-30T08:52:49.136Z,32.29
2022-07-30T08:54:51.806Z,32.47
2022-07-30T08:56:54.969Z,32.63
2022-07-30T08:58:58.161Z,32.72
2022-07-30T09:01:00.168Z,32.79
2022-07-30T09:03:04.005Z,32.89
2022-07-30T09:05:06.615Z,33.03
2022-07-30T09:07:08.640Z,33.07
2022-07-30T09:09:12.044Z,33.10
2022-07-30T09:11:16.126Z,33.07
2022-07-30T09:13:32.507Z,33.00
2022-07-30T09:15:38.727Z,32.97
2022-07-30T09:17:52.671Z,33.06
2022-07-30T09:20:04.156Z,33.24
2022-07-30T09:22:09.479Z,33.39
2022-07-30T09:24:45.793Z,33.48
2022-07-30T09:27:06.456Z,33.64
2022-07-30T09:29:29.114Z,33.79
2022-07-30T09:32:02.151Z,33.86
2022-07-30T09:34:29.891Z,34.00
2022-07-30T09:36:34.573Z,33.94
2022-07-30T09:38:55.734Z,33.97
2022-07-30T09:41:39.649Z,34.08
2022-07-30T09:43:50.357Z,34.25
2022-07-30T09:46:08.239Z,34.42
2022-07-30T09:48:22.017Z,34.53
2022-07-30T09:50:30.263Z,34.43
2022-07-30T09:52:34.909Z,34.41
2022-07-30T09:54:52.619Z,34.50
2022-07-30T09:57:05.819Z,34.65
2022-07-30T09:59:07.816Z,34.84
2022-07-30T10:01:21.920Z,35.02
2022-07-30T10:04:06.212Z,35.25
2022-07-30T10:06:41.999Z,35.43
2022-07-30T10:09:01.294Z,35.50
2022-07-30T10:11:22.708Z,35.55
2022-07-30T10:13:34.894Z,35.44
2022-07-30T10:15:37.290Z,35.24
2022-07-30T10:17:41.912Z,35.08
2022-07-30T10:20:12.324Z,35.10
2022-07-30T10:22:35.862Z,35.28
2022-07-30T10:24:56.974Z,35.46
2022-07-30T10:27:18.240Z,35.62
2022-07-30T10:29:33.619Z,35.71
2022-07-30T10:31:48.862Z,35.72
2022-07-30T10:33:51.996Z,35.67
2022-07-30T10:35:54.395Z,35.66
2022-07-30T10:37:58.206Z,35.67
2022-07-30T10:40:10.462Z,35.55
2022-07-30T10:42:44.979Z,35.36
2022-07-30T10:45:17.321Z,35.45
2022-07-30T10:47:21.245Z,35.53
2022-07-30T10:49:25.946Z,35.65
2022-07-30T10:52:03.815Z,35.44
2022-07-30T10:54:39.471Z,35.43
2022-07-30T10:56:41.931Z,35.57
2022-07-30T10:59:10.821Z,35.55
2022-07-30T11:01:17.911Z,35.52
2022-07-30T11:03:40.465Z,35.55
2022-07-30T11:05:49.270Z,35.59
2022-07-30T11:07:51.303Z,35.56
2022-07-30T11:10:05.177Z,35.59
2022-07-30T11:12:12.613Z,35.64
2022-07-30T11:14:17.941Z,35.74
2022-07-30T11:16:24.544Z,35.81
2022-07-30T11:18:28.751Z,35.90
2022-07-30T11:20:32.415Z,36.02
2022-07-30T11:22:44.775Z,35.94
2022-07-30T11:24:48.936Z,35.93
2022-07-30T11:26:51.892Z,35.98
2022-07-30T11:28:54.371Z,36.03
2022-07-30T11:30:56.801Z,36.00
2022-07-30T11:33:04.311Z,35.88
2022-07-30T11:35:19.219Z,35.73
2022-07-30T11:37:22.199Z,35.73
2022-07-30T11:39:55.366Z,35.79
2022-07-30T11:42:24.310Z,35.89
2022-07-30T11:44:28.614Z,35.96
2022-07-30T11:46:30.728Z,35.91
2022-07-30T11:48:33.396Z,35.89
2022-07-30T11:50:36.534Z,35.97
2022-07-30T11:52:38.557Z,36.08
2022-07-30T11:54:54.272Z,36.09
2022-07-30T11:57:04.442Z,36.21
2022-07-30T11:59:08.510Z,36.23
2022-07-30T12:01:16.354Z,36.22
2022-07-30T12:03:21.253Z,36.14
2022-07-30T12:05:26.167Z,36.20
2022-07-30T12:07:28.164Z,36.33
2022-07-30T12:09:30.042Z,36.39
2022-07-30T12:11:33.862Z,36.47
2022-07-30T12:13:44.940Z,36.47
2022-07-30T12:15:50.415Z,36.38
2022-07-30T12:18:11.134Z,36.35
2022-07-30T12:20:17.849Z,36.22
2022-07-30T12:22:19.927Z,36.25
2022-07-30T12:24:26.882Z,36.23
2022-07-30T12:26:30.989Z,36.24
2022-07-30T12:28:35.932Z,36.15
2022-07-30T12:30:41.140Z,36.11
2022-07-30T12:32:44.460Z,36.12
2022-07-30T12:34:56.905Z,36.10
2022-07-30T12:37:08.922Z,36.12
2022-07-30T12:39:19.520Z,36.18
2022-07-30T12:41:22.638Z,36.15
2022-07-30T12:43:46.568Z,36.11
2022-07-30T12:45:51.906Z,36.16
2022-07-30T12:47:57.671Z,36.13
2022-07-30T12:50:01.678Z,36.09
2022-07-30T12:52:03.871Z,36.07
2022-07-30T12:54:19.541Z,36.10
2022-07-30T12:56:24.271Z,36.13
2022-07-30T12:58:37.991Z,36.11
2022-07-30T13:00:51.179Z,36.03
2022-07-30T13:02:53.143Z,36.00
2022-07-30T13:05:11.090Z,35.93
2022-07-30T13:07:13.768Z,35.83
2022-07-30T13:09:22.134Z,35.75
2022-07-30T13:11:48.475Z,35.67
2022-07-30T13:13:51.644Z,35.64
2022-07-30T13:16:05.466Z,35.49
2022-07-30T13:18:07.613Z,35.31
2022-07-30T13:20:10.232Z,35.15
2022-07-30T13:22:13.533Z,34.98
2022-07-30T13:24:17.881Z,34.90
2022-07-30T13:26:20.175Z,34.71
2022-07-30T13:28:22.561Z,34.60
2022-07-30T13:30:24.400Z,34.40
2022-07-30T13:32:26.167Z,34.22
2022-07-30T13:34:28.072Z,33.87
2022-07-30T13:36:29.859Z,33.51
2022-07-30T13:38:32.043Z,32.93
2022-07-30T13:40:34.178Z,32.46
2022-07-30T13:42:35.940Z,32.15
2022-07-30T13:44:38.026Z,31.97
2022-07-30T13:46:41.447Z,31.78
2022-07-30T13:48:43.446Z,31.63
2022-07-30T13:50:45.584Z,31.57
2022-07-30T13:52:47.817Z,31.53
2022-07-30T13:54:51.428Z,31.44
2022-07-30T13:56:53.547Z,31.40
2022-07-30T13:58:55.296Z,31.09
2022-07-30T14:00:58.029Z,31.00
2022-07-30T14:03:02.158Z,30.88
2022-07-30T14:05:07.418Z,30.60
2022-07-30T14:07:09.237Z,30.65
2022-07-30T14:09:11.016Z,30.69
2022-07-30T14:11:12.848Z,30.82
2022-07-30T14:13:16.034Z,30.88
2022-07-30T14:15:24.749Z,30.99
2022-07-30T14:17:26.587Z,31.06
2022-07-30T14:19:28.505Z,31.06
2022-07-30T14:21:30.325Z,30.98
2022-07-30T14:23:32.197Z,30.93
2022-07-30T14:25:33.912Z,30.80
2022-07-30T14:27:36.509Z,30.76
2022-07-30T14:29:38.335Z,30.70
2022-07-30T14:31:40.727Z,30.67
2022-07-30T14:33:42.593Z,30.62
2022-07-30T14:35:44.393Z,30.54
2022-07-30T14:37:46.272Z,30.57
2022-07-30T14:39:48.320Z,30.62
2022-07-30T14:41:53.172Z,30.60
2022-07-30T14:43:58.092Z,30.60
2022-07-30T14:45:59.998Z,30.49
2022-07-30T14:48:02.442Z,30.05
2022-07-30T14:50:05.323Z,29.72
2022-07-30T14:52:07.526Z,29.44
2022-07-30T14:54:11.996Z,29.22
2022-07-30T14:56:13.876Z,29.13
2022-07-30T14:58:16.107Z,29.10
2022-07-30T15:00:18.546Z,29.05
2022-07-30T15:02:23.767Z,29.04
2022-07-30T15:04:25.988Z,28.98
2022-07-30T15:06:28.219Z,29.11
2022-07-30T15:08:30.303Z,29.15
2022-07-30T15:10:32.174Z,29.08
2022-07-30T15:12:34.119Z,29.09
2022-07-30T15:14:38.167Z,29.19
2022-07-30T15:16:41.620Z,29.28
2022-07-30T15:18:43.482Z,29.36
2022-07-30T15:20:45.247Z,29.39
2022-07-30T15:22:47.033Z,29.44
2022-07-30T15:24:49.198Z,29.49
2022-07-30T15:26:51.326Z,29.51
2022-07-30T15:28:53.208Z,29.46
2022-07-30T15:30:55.806Z,29.44
2022-07-30T15:32:57.982Z,29.42
2022-07-30T15:34:59.818Z,29.43
2022-07-30T15:37:02.951Z,29.41
2022-07-30T15:39:06.211Z,29.43
2022-07-30T15:41:13.306Z,29.41
2022-07-30T15:43:15.504Z,29.43
2022-07-30T15:45:18.632Z,29.47
2022-07-30T15:47:22.068Z,29.47
2022-07-30T15:49:24.141Z,29.47
2022-07-30T15:51:26.069Z,29.41
2022-07-30T15:53:28.148Z,29.40
2022-07-30T15:55:30.297Z,29.39
2022-07-30T15:57:49.030Z,29.35
2022-07-30T15:59:50.863Z,29.30
2022-07-30T16:01:53.183Z,29.25
2022-07-30T16:03:54.942Z,29.28
2022-07-30T16:05:56.751Z,29.22
2022-07-30T16:07:58.867Z,29.23
2022-07-30T16:10:00.683Z,29.22
2022-07-30T16:12:02.905Z,29.21
2022-07-30T16:14:04.896Z,29.19
2022-07-30T16:16:06.708Z,29.13
2022-07-30T16:18:08.952Z,29.07
2022-07-30T16:20:11.094Z,29.01
2022-07-30T16:22:14.920Z,28.87
2022-07-30T16:24:23.942Z,28.79
2022-07-30T16:26:25.881Z,28.56
2022-07-30T16:28:27.646Z,28.49
2022-07-30T16:30:29.482Z,28.53
2022-07-30T16:32:31.327Z,28.65
2022-07-30T16:34:33.459Z,28.74
2022-07-30T16:36:35.311Z,28.81
2022-07-30T16:38:37.534Z,28.82
2022-07-30T16:40:39.380Z,28.70
2022-07-30T16:42:41.294Z,28.68
2022-07-30T16:44:43.107Z,28.70
2022-07-30T16:46:44.986Z,28.67
2022-07-30T16:48:46.814Z,28.46
2022-07-30T16:50:52.480Z,28.43
2022-07-30T16:52:54.218Z,28.33
2022-07-30T16:54:56.029Z,28.19
2022-07-30T16:56:58.370Z,28.20
2022-07-30T16:59:00.340Z,28.12
2022-07-30T17:01:02.253Z,28.16
2022-07-30T17:03:04.370Z,28.07
2022-07-30T17:05:09.590Z,28.08
2022-07-30T17:07:13.996Z,28.15
2022-07-30T17:09:16.149Z,28.23
2022-07-30T17:11:46.455Z,28.31
2022-07-30T17:13:40.457Z,28.32
2022-07-30T17:15:42.643Z,28.12
2022-07-30T17:17:44.606Z,27.92
2022-07-30T17:19:46.449Z,27.88
2022-07-30T17:21:48.697Z,27.82
2022-07-30T17:23:50.692Z,27.71
2022-07-30T17:25:52.507Z,27.71
2022-07-30T17:27:59.111Z,27.67
2022-07-30T17:30:02.090Z,27.68
2022-07-30T17:32:04.575Z,27.48
2022-07-30T17:34:09.071Z,27.50
2022-07-30T17:36:12.815Z,27.49
2022-07-30T17:38:14.730Z,27.23
2022-07-30T17:40:29.099Z,27.22
2022-07-30T17:42:32.872Z,27.26
2022-07-30T17:44:35.509Z,27.21
2022-07-30T17:46:37.468Z,27.12
2022-07-30T17:48:39.602Z,27.00
2022-07-30T17:50:41.345Z,26.97
2022-07-30T17:52:43.420Z,26.94
2022-07-30T17:54:45.161Z,26.87
2022-07-30T17:56:48.114Z,26.80
2022-07-30T17:58:51.265Z,26.86
2022-07-30T18:00:53.526Z,27.00
2022-07-30T18:02:55.375Z,27.09
2022-07-30T18:04:57.291Z,27.15
2022-07-30T18:06:59.550Z,27.25
2022-07-30T18:09:01.794Z,27.20
2022-07-30T18:11:03.721Z,27.08
2022-07-30T18:13:25.824Z,27.04
2022-07-30T18:15:28.382Z,26.93
2022-07-30T18:17:30.207Z,26.91
2022-07-30T18:19:32.320Z,26.91
2022-07-30T18:21:34.499Z,26.92
2022-07-30T18:23:40.536Z,26.96
2022-07-30T18:25:53.042Z,27.01
2022-07-30T18:27:56.525Z,27.10
2022-07-30T18:29:58.768Z,27.20
2022-07-30T18:32:00.781Z,27.29
2022-07-30T18:34:03.082Z,27.32
2022-07-30T18:36:05.161Z,27.29
2022-07-30T18:38:06.895Z,27.27
2022-07-30T18:40:10.493Z,27.34
2022-07-30T18:42:12.313Z,27.34
2022-07-30T18:44:14.258Z,27.36
2022-07-30T18:46:16.409Z,27.41
2022-07-30T18:48:18.290Z,27.40
2022-07-30T18:50:20.163Z,27.35
2022-07-30T18:52:22.386Z,27.35
2022-07-30T18:54:24.141Z,27.33
2022-07-30T18:56:26.136Z,27.34
2022-07-30T18:58:28.026Z,27.32
2022-07-30T19:00:35.289Z,27.32
2022-07-30T19:02:38.212Z,27.30
2022-07-30T19:04:40.324Z,27.13
2022-07-30T19:06:42.187Z,27.08
2022-07-30T19:08:44.037Z,27.06
2022-07-30T19:10:45.827Z,26.97
2022-07-30T19:12:47.654Z,26.91
2022-07-30T19:14:49.939Z,26.81
2022-07-30T19:16:52.466Z,26.71
2022-07-30T19:18:54.300Z,26.68
2022-07-30T19:20:56.149Z,26.61
2022-07-30T19:23:05.727Z,26.53
2022-07-30T19:25:08.316Z,26.53
2022-07-30T19:27:14.095Z,26.53
2022-07-30T19:29:16.853Z,26.47
2022-07-30T19:31:19.804Z,26.45
2022-07-30T19:33:21.919Z,26.35
2022-07-30T19:35:23.825Z,26.33
2022-07-30T19:37:25.686Z,26.23
2022-07-30T19:39:27.510Z,26.25
2022-07-30T19:41:30.317Z,26.30
2022-07-30T19:43:33.681Z,26.32
2022-07-30T19:45:47.793Z,26.42
2022-07-30T19:47:50.339Z,26.48
2022-07-30T19:49:53.645Z,26.56
2022-07-30T19:52:10.690Z,26.56
2022-07-30T19:54:17.673Z,26.63
2022-07-30T19:56:20.008Z,26.67
2022-07-30T19:58:22.068Z,26.68
2022-07-30T20:00:26.829Z,26.74
2022-07-30T20:02:28.817Z,26.61
2022-07-30T20:04:30.891Z,26.55
2022-07-30T20:06:32.704Z,26.60
2022-07-30T20:08:38.271Z,26.65
2022-07-30T20:10:40.708Z,26.69
2022-07-30T20:12:42.884Z,26.74
2022-07-30T20:14:51.433Z,26.75
2022-07-30T20:16:53.225Z,26.75
2022-07-30T20:18:55.096Z,26.74
2022-07-30T20:20:57.656Z,26.73
2022-07-30T20:22:59.830Z,26.70
2022-07-30T20:25:02.638Z,26.60
2022-07-30T20:27:36.539Z,26.70
2022-07-30T20:29:26.845Z,26.71
2022-07-30T20:31:28.717Z,26.74
2022-07-30T20:33:37.758Z,26.74
2022-07-30T20:35:41.005Z,26.76
2022-07-30T20:37:55.035Z,26.72
2022-07-30T20:39:58.104Z,26.70
2022-07-30T20:42:12.060Z,26.68
2022-07-30T20:44:23.308Z,26.59
2022-07-30T20:46:25.686Z,26.60
2022-07-30T20:48:34.530Z,26.58
2022-07-30T20:50:39.017Z,26.53
2022-07-30T20:52:44.946Z,26.56
2022-07-30T20:54:48.316Z,26.56
2022-07-30T20:56:50.555Z,26.59
2022-07-30T20:58:52.791Z,26.61
2022-07-30T21:00:57.499Z,26.66
2022-07-30T21:03:03.149Z,26.68
2022-07-30T21:05:05.644Z,26.62
2022-07-30T21:07:08.101Z,26.65
2022-07-30T21:09:12.905Z,26.62
2022-07-30T21:11:14.869Z,26.61
2022-07-30T21:13:17.530Z,26.61
2022-07-30T21:15:23.767Z,26.58
2022-07-30T21:17:26.347Z,26.56
2022-07-30T21:19:30.682Z,26.56
2022-07-30T21:21:41.849Z,26.57
2022-07-30T21:23:49.820Z,26.58
2022-07-30T21:26:00.354Z,26.56
2022-07-30T21:28:05.187Z,26.54
2022-07-30T21:30:07.624Z,26.55
2022-07-30T21:32:10.150Z,26.55
2022-07-30T21:34:13.464Z,26.51
2022-07-30T21:36:15.416Z,26.53
2022-07-30T21:38:17.232Z,26.53
2022-07-30T21:40:24.540Z,26.55
2022-07-30T21:42:30.251Z,26.54
2022-07-30T21:44:32.284Z,26.57
2022-07-30T21:46:34.200Z,26.53
2022-07-30T21:48:36.075Z,26.50
2022-07-30T21:50:38.192Z,26.45
2022-07-30T21:52:40.181Z,26.48
2022-07-30T21:54:48.123Z,26.51
2022-07-30T21:56:50.570Z,26.44
2022-07-30T21:58:52.388Z,26.36
2022-07-30T22:00:55.517Z,26.35
2022-07-30T22:02:57.466Z,26.30
2022-07-30T22:04:59.373Z,26.30
2022-07-30T22:07:04.088Z,26.31
2022-07-30T22:09:19.419Z,26.33
2022-07-30T22:11:42.686Z,26.35
2022-07-30T22:13:51.188Z,26.38
2022-07-30T22:15:53.513Z,26.37
2022-07-30T22:17:57.992Z,26.36
2022-07-30T22:20:01.013Z,26.34
2022-07-30T22:22:05.240Z,26.29
2022-07-30T22:24:29.704Z,26.25
2022-07-30T22:26:32.296Z,26.28
2022-07-30T22:28:34.110Z,26.31
2022-07-30T22:30:35.981Z,26.28
2022-07-30T22:32:38.860Z,26.31
2022-07-30T22:34:40.887Z,26.29
2022-07-30T22:36:45.556Z,26.28
2022-07-30T22:38:58.603Z,26.28
2022-07-30T22:41:01.670Z,26.23
2022-07-30T22:43:09.288Z,26.23
2022-07-30T22:45:14.316Z,26.24
2022-07-30T22:47:17.892Z,26.20
2022-07-30T22:49:45.270Z,26.20
2022-07-30T22:52:03.339Z,26.22
2022-07-30T22:54:12.821Z,26.18
2022-07-30T22:58:36.911Z,26.13
2022-07-30T23:00:41.587Z,26.05
2022-07-30T23:02:45.062Z,26.04
2022-07-30T23:04:47.194Z,26.02
2022-07-30T23:06:51.539Z,26.02
2022-07-30T23:08:53.264Z,26.01
2022-07-30T23:10:57.178Z,25.93
2022-07-30T23:12:30.810Z,26.14
2022-07-30T23:12:59.468Z,25.84
2022-07-30T23:15:01.876Z,25.88
2022-07-30T23:17:03.842Z,25.80
2022-07-30T23:19:06.761Z,25.79
2022-07-30T23:21:08.608Z,25.71
2022-07-30T23:23:11.707Z,25.66
2022-07-30T23:25:14.029Z,25.70
2022-07-30T23:27:15.854Z,25.71
2022-07-30T23:29:17.672Z,25.76
2022-07-30T23:31:21.931Z,25.75
2022-07-30T23:33:25.869Z,25.78
2022-07-30T23:35:27.846Z,25.79
2022-07-30T23:37:29.669Z,25.74
2022-07-30T23:39:49.753Z,25.60
2022-07-30T23:41:51.966Z,25.46
2022-07-30T23:43:53.822Z,25.39
2022-07-30T23:45:55.588Z,25.35
2022-07-30T23:48:02.476Z,25.35
2022-07-30T23:50:05.747Z,25.26
2022-07-30T23:52:07.644Z,25.22
2022-07-30T23:54:09.453Z,25.08
2022-07-30T23:56:15.555Z,24.94
2022-07-30T23:58:18.358Z,24.98
